createdAt,value
2018-09-17T00:00:04.870Z,4.60
2018-09-17T00:02:33.314Z,4.10
2018-09-17T00:05:01.867Z,5.40
2018-09-17T00:07:30.424Z,3.83
2018-09-17T00:09:58.906Z,4.00
2018-09-17T00:12:27.671Z,4.17
2018-09-17T00:14:56.186Z,4.93
2018-09-17T00:17:24.711Z,4.63
2018-09-17T00:19:53.350Z,5.00
2018-09-17T00:22:21.881Z,4.73
2018-09-17T00:24:50.362Z,4.77
2018-09-17T00:27:18.884Z,4.73
2018-09-17T00:29:47.398Z,5.23
2018-09-17T00:32:15.856Z,4.30
2018-09-17T00:34:44.387Z,4.10
2018-09-17T00:37:12.966Z,5.30
2018-09-17T00:39:41.471Z,4.53
2018-09-17T00:42:10.107Z,4.57
2018-09-17T00:44:38.614Z,4.17
2018-09-17T00:47:07.027Z,4.30
2018-09-17T00:49:35.623Z,4.93
2018-09-17T00:52:04.056Z,4.50
2018-09-17T00:54:32.534Z,3.80
2018-09-17T00:57:01.067Z,3.70
2018-09-17T00:59:29.480Z,3.83
2018-09-17T01:01:58.019Z,4.50
2018-09-17T01:04:26.530Z,3.77
2018-09-17T01:06:55.702Z,4.30
2018-09-17T01:09:29.395Z,4.23
2018-09-17T01:11:57.963Z,4.93
2018-09-17T01:14:26.478Z,3.97
2018-09-17T01:16:55.058Z,4.70
2018-09-17T01:19:23.521Z,4.90
2018-09-17T01:21:52.388Z,3.70
2018-09-17T01:24:21.259Z,4.43
2018-09-17T01:26:49.678Z,5.07
2018-09-17T01:29:18.142Z,4.13
2018-09-17T01:31:46.573Z,4.17
2018-09-17T01:34:15.095Z,4.40
2018-09-17T01:36:43.554Z,4.33
2018-09-17T01:39:12.939Z,4.13
2018-09-17T01:41:41.484Z,3.97
2018-09-17T01:44:09.975Z,4.20
2018-09-17T01:46:38.849Z,4.50
2018-09-17T01:49:07.375Z,4.73
2018-09-17T01:51:35.847Z,3.63
2018-09-17T01:54:04.367Z,4.20
2018-09-17T01:56:32.853Z,3.90
2018-09-17T01:59:01.263Z,4.40
2018-09-17T02:01:30.193Z,4.80
2018-09-17T02:03:58.747Z,4.23
2018-09-17T02:06:27.239Z,5.50
2018-09-17T02:08:56.065Z,4.30
2018-09-17T02:11:24.522Z,5.03
2018-09-17T02:13:53.198Z,3.73
2018-09-17T02:16:21.771Z,4.43
2018-09-17T02:18:50.254Z,5.07
2018-09-17T02:21:18.847Z,4.70
2018-09-17T02:23:47.314Z,4.80
2018-09-17T02:26:15.707Z,4.90
2018-09-17T02:28:44.202Z,4.10
2018-09-17T02:31:12.853Z,4.70
2018-09-17T02:33:41.271Z,4.27
2018-09-17T02:36:09.785Z,5.50
2018-09-17T02:38:38.243Z,4.20
2018-09-17T02:41:06.782Z,5.90
2018-09-17T02:43:35.274Z,4.77
2018-09-17T02:46:03.915Z,4.10
2018-09-17T02:48:32.458Z,5.57
2018-09-17T02:51:00.911Z,4.83
2018-09-17T02:53:29.502Z,4.93
2018-09-17T02:55:57.915Z,4.37
2018-09-17T02:58:26.306Z,4.50
2018-09-17T03:00:54.763Z,4.90
2018-09-17T03:03:23.242Z,4.80
2018-09-17T03:05:53.995Z,4.87
2018-09-17T03:08:22.407Z,4.60
2018-09-17T03:10:50.866Z,5.17
2018-09-17T03:13:19.377Z,5.13
2018-09-17T03:15:55.934Z,4.60
2018-09-17T03:18:36.982Z,4.47
2018-09-17T03:21:06.547Z,5.10
2018-09-17T03:23:36.359Z,5.17
2018-09-17T03:26:05.307Z,4.40
2018-09-17T03:28:34.079Z,4.47
2018-09-17T03:31:02.591Z,4.90
2018-09-17T03:33:31.034Z,5.87
2018-09-17T03:35:59.522Z,5.37
2018-09-17T03:38:38.408Z,4.60
2018-09-17T03:41:07.994Z,4.27
2018-09-17T03:43:37.730Z,5.00
2018-09-17T03:46:06.398Z,4.53
2018-09-17T03:48:35.775Z,4.90
2018-09-17T03:51:05.202Z,3.90
2018-09-17T03:53:34.038Z,4.90
2018-09-17T03:56:02.515Z,4.97
2018-09-17T03:58:31.218Z,4.90
2018-09-17T04:01:00.471Z,5.80
2018-09-17T04:03:28.862Z,5.03
2018-09-17T04:05:57.386Z,6.30
2018-09-17T04:08:25.907Z,5.50
2018-09-17T04:10:54.323Z,4.60
2018-09-17T04:13:22.839Z,5.27
2018-09-17T04:15:51.598Z,4.63
2018-09-17T04:18:20.108Z,4.83
2018-09-17T04:20:48.759Z,4.97
2018-09-17T04:23:24.314Z,4.70
2018-09-17T04:25:53.049Z,4.40
2018-09-17T04:28:21.557Z,5.37
2018-09-17T04:30:50.046Z,6.47
2018-09-17T04:33:18.690Z,4.97
2018-09-17T04:35:47.159Z,5.10
2018-09-17T04:38:15.590Z,5.03
2018-09-17T04:40:44.030Z,5.23
2018-09-17T04:43:12.539Z,4.80
2018-09-17T04:45:41.044Z,6.10
2018-09-17T04:48:09.654Z,5.47
2018-09-17T04:50:38.083Z,4.40
2018-09-17T04:53:06.509Z,5.83
2018-09-17T04:55:35.151Z,6.43
2018-09-17T04:58:03.691Z,6.03
2018-09-17T05:00:32.162Z,5.30
2018-09-17T05:03:00.939Z,5.40
2018-09-17T05:05:29.494Z,5.20
2018-09-17T05:07:58.214Z,6.20
2018-09-17T05:10:26.715Z,5.33
2018-09-17T05:12:55.165Z,5.20
2018-09-17T05:15:23.674Z,5.37
2018-09-17T05:17:52.306Z,6.60
2018-09-17T05:20:20.774Z,5.80
2018-09-17T05:22:49.386Z,6.00
2018-09-17T05:25:17.927Z,6.10
2018-09-17T05:27:46.404Z,6.33
2018-09-17T05:30:14.910Z,5.53
2018-09-17T05:32:43.587Z,5.60
2018-09-17T05:35:12.174Z,5.80
2018-09-17T05:37:40.645Z,5.97
2018-09-17T05:40:09.178Z,6.10
2018-09-17T05:42:37.583Z,5.70
2018-09-17T05:45:06.403Z,5.90
2018-09-17T05:47:35.187Z,5.60
2018-09-17T05:50:03.611Z,5.77
2018-09-17T05:52:32.078Z,5.67
2018-09-17T05:55:00.842Z,5.43
2018-09-17T05:57:29.300Z,5.50
2018-09-17T05:59:57.778Z,6.33
2018-09-17T06:02:26.302Z,5.17
2018-09-17T06:04:54.862Z,5.60
2018-09-17T06:07:23.278Z,4.67
2018-09-17T06:09:52.112Z,6.10
2018-09-17T06:12:20.667Z,6.07
2018-09-17T06:14:49.171Z,5.57
2018-09-17T06:17:17.776Z,6.33
2018-09-17T06:19:46.266Z,6.97
2018-09-17T06:22:14.718Z,6.70
2018-09-17T06:24:43.287Z,6.27
2018-09-17T06:27:11.745Z,6.30
2018-09-17T06:29:40.179Z,5.50
2018-09-17T06:32:08.867Z,7.53
2018-09-17T06:34:37.296Z,5.37
2018-09-17T06:37:05.808Z,6.93
2018-09-17T06:39:34.553Z,6.50
2018-09-17T06:42:02.978Z,6.67
2018-09-17T06:44:31.398Z,6.83
2018-09-17T06:46:59.930Z,6.90
2018-09-17T06:49:28.353Z,7.00
2018-09-17T06:51:56.831Z,6.50
2018-09-17T06:54:25.499Z,5.87
2018-09-17T06:56:53.919Z,6.87
2018-09-17T06:59:22.356Z,7.10
2018-09-17T07:01:51.250Z,9.40
2018-09-17T07:04:19.699Z,8.27
2018-09-17T07:06:48.251Z,7.77
2018-09-17T07:09:17.399Z,6.40
2018-09-17T07:11:45.930Z,5.97
2018-09-17T07:14:14.429Z,6.13
2018-09-17T07:16:43.210Z,6.27
2018-09-17T07:19:11.719Z,6.50
2018-09-17T07:21:40.154Z,7.10
2018-09-17T07:24:08.674Z,5.93
2018-09-17T07:26:37.150Z,6.20
2018-09-17T07:29:05.813Z,6.13
2018-09-17T07:31:34.270Z,6.37
2018-09-17T07:34:02.858Z,6.23
2018-09-17T07:36:31.422Z,5.70
2018-09-17T07:38:59.950Z,4.80
2018-09-17T07:41:28.462Z,5.90
2018-09-17T07:43:56.955Z,5.60
2018-09-17T07:46:25.499Z,5.60
2018-09-17T07:48:53.921Z,5.67
2018-09-17T07:51:22.326Z,5.60
2018-09-17T07:53:51.314Z,5.60
2018-09-17T07:56:19.879Z,5.80
2018-09-17T07:58:48.348Z,6.90
2018-09-17T08:01:16.903Z,5.63
2018-09-17T08:03:45.326Z,5.17
2018-09-17T08:06:13.959Z,6.27
2018-09-17T08:08:42.690Z,5.87
2018-09-17T08:11:11.148Z,5.43
2018-09-17T08:13:39.612Z,5.77
2018-09-17T08:16:08.278Z,6.33
2018-09-17T08:18:36.863Z,5.80
2018-09-17T08:21:05.327Z,5.40
2018-09-17T08:23:33.966Z,5.20
2018-09-17T08:26:02.495Z,5.30
2018-09-17T08:28:30.998Z,5.33
2018-09-17T08:30:59.484Z,5.67
2018-09-17T08:33:28.079Z,5.60
2018-09-17T08:35:56.683Z,5.40
2018-09-17T08:38:25.737Z,5.40
2018-09-17T08:40:54.676Z,5.30
2018-09-17T08:43:23.118Z,5.10
2018-09-17T08:45:51.561Z,5.67
2018-09-17T08:48:20.067Z,6.50
2018-09-17T08:50:48.520Z,6.17
2018-09-17T08:53:17.149Z,5.50
2018-09-17T08:55:46.759Z,6.20
2018-09-17T08:58:20.685Z,6.53
2018-09-17T09:00:54.438Z,6.03
2018-09-17T09:03:26.980Z,6.00
2018-09-17T09:06:00.657Z,4.80
2018-09-17T09:08:29.147Z,5.93
2018-09-17T09:11:02.910Z,5.00
2018-09-17T09:13:34.434Z,5.00
2018-09-17T09:16:02.935Z,5.10
2018-09-17T09:18:31.406Z,4.60
2018-09-17T09:20:59.891Z,5.13
2018-09-17T09:23:28.363Z,6.00
2018-09-17T09:25:56.870Z,5.57
2018-09-17T09:28:25.760Z,5.40
2018-09-17T09:30:54.258Z,5.70
2018-09-17T09:33:22.675Z,6.53
2018-09-17T09:35:51.164Z,5.40
2018-09-17T09:38:19.675Z,5.30
2018-09-17T09:40:48.101Z,5.13
2018-09-17T09:43:16.658Z,6.37
2018-09-17T09:45:45.218Z,5.57
2018-09-17T09:48:13.699Z,5.60
2018-09-17T09:50:42.161Z,5.87
2018-09-17T09:53:10.619Z,5.60
2018-09-17T09:55:39.083Z,5.63
2018-09-17T09:58:07.865Z,6.03
2018-09-17T10:01:39.311Z,6.03
2018-09-17T10:04:13.322Z,5.50
2018-09-17T10:06:41.815Z,6.10
2018-09-17T10:09:15.907Z,7.03
2018-09-17T10:11:49.707Z,5.80
2018-09-17T10:14:23.734Z,5.57
2018-09-17T10:16:57.399Z,6.50
2018-09-17T10:19:26.281Z,5.60
2018-09-17T10:21:54.651Z,6.00
2018-09-17T10:24:23.234Z,6.50
2018-09-17T10:26:51.849Z,5.00
2018-09-17T10:29:20.409Z,5.17
2018-09-17T10:31:48.875Z,6.00
2018-09-17T10:34:17.402Z,5.63
2018-09-17T10:36:45.875Z,5.10
2018-09-17T10:39:14.771Z,4.80
2018-09-17T10:41:43.270Z,4.87
2018-09-17T10:44:11.730Z,4.43
2018-09-17T10:46:40.203Z,5.10
2018-09-17T10:49:09.074Z,4.37
2018-09-17T10:51:37.530Z,5.03
2018-09-17T10:54:06.006Z,4.83
2018-09-17T10:56:34.562Z,5.23
2018-09-17T10:59:03.118Z,3.87
2018-09-17T11:01:31.590Z,4.63
2018-09-17T11:04:00.147Z,6.03
2018-09-17T11:06:28.634Z,5.10
2018-09-17T11:08:57.083Z,3.80
2018-09-17T11:11:25.547Z,4.50
2018-09-17T11:13:54.119Z,4.60
2018-09-17T11:16:22.552Z,4.83
2018-09-17T11:18:51.355Z,4.83
2018-09-17T11:21:19.879Z,4.47
2018-09-17T11:23:48.355Z,3.63
2018-09-17T11:26:17.108Z,3.23
2018-09-17T11:28:45.926Z,3.93
2018-09-17T11:31:14.601Z,3.63
2018-09-17T11:33:43.087Z,4.00
2018-09-17T11:36:11.606Z,3.50
2018-09-17T11:38:40.143Z,3.77
2018-09-17T11:41:08.638Z,3.43
2018-09-17T11:43:37.084Z,3.40
2018-09-17T11:46:05.734Z,3.87
2018-09-17T11:48:34.243Z,2.73
2018-09-17T11:51:03.171Z,3.23
2018-09-17T11:53:31.973Z,4.20
2018-09-17T11:56:00.598Z,3.23
2018-09-17T11:58:29.026Z,2.97
2018-09-17T12:01:02.899Z,2.77
2018-09-17T12:03:36.564Z,3.50
2018-09-17T12:06:05.954Z,3.43
2018-09-17T12:08:34.570Z,3.47
2018-09-17T12:11:03.046Z,4.00
2018-09-17T12:13:31.517Z,3.73
2018-09-17T12:16:00.868Z,3.60
2018-09-17T12:18:29.274Z,4.30
2018-09-17T12:20:57.807Z,3.90
2018-09-17T12:23:26.227Z,3.90
2018-09-17T12:25:54.598Z,3.20
2018-09-17T12:28:23.223Z,3.80
2018-09-17T12:30:51.733Z,2.70
2018-09-17T12:33:20.159Z,3.53
2018-09-17T12:35:48.626Z,3.30
2018-09-17T12:38:17.095Z,2.70
2018-09-17T12:40:45.590Z,3.67
2018-09-17T12:43:14.259Z,3.27
2018-09-17T12:45:42.862Z,4.43
2018-09-17T12:48:11.374Z,3.20
2018-09-17T12:50:40.147Z,3.40
2018-09-17T12:53:08.682Z,3.27
2018-09-17T12:55:37.163Z,2.80
2018-09-17T12:58:06.141Z,3.40
2018-09-17T13:00:34.550Z,3.30
2018-09-17T13:03:03.043Z,3.13
2018-09-17T13:05:31.610Z,3.37
2018-09-17T13:08:00.054Z,4.10
2018-09-17T13:10:28.654Z,2.57
2018-09-17T13:12:57.328Z,3.03
2018-09-17T13:15:25.887Z,2.67
2018-09-17T13:17:54.314Z,2.77
2018-09-17T13:20:22.890Z,2.77
2018-09-17T13:22:51.346Z,2.87
2018-09-17T13:25:19.918Z,2.77
2018-09-17T13:27:48.691Z,2.90
2018-09-17T13:30:17.196Z,3.07
2018-09-17T13:32:45.735Z,2.50
2018-09-17T13:35:14.207Z,3.93
2018-09-17T13:37:42.683Z,2.83
2018-09-17T13:40:11.103Z,3.10
2018-09-17T13:42:39.683Z,3.30
2018-09-17T13:45:08.093Z,3.20
2018-09-17T13:47:36.909Z,2.67
2018-09-17T13:50:06.296Z,3.10
2018-09-17T13:52:37.077Z,2.20
2018-09-17T13:55:06.114Z,2.20
2018-09-17T13:57:34.521Z,2.70
2018-09-17T14:00:02.973Z,3.20
2018-09-17T14:02:31.410Z,3.07
2018-09-17T14:05:06.560Z,3.00
2018-09-17T14:07:40.087Z,2.77
2018-09-17T14:10:11.612Z,2.27
2018-09-17T14:12:40.951Z,2.53
2018-09-17T14:15:09.539Z,2.33
2018-09-17T14:17:38.174Z,2.57
2018-09-17T14:20:06.851Z,2.93
2018-09-17T14:22:35.291Z,3.00
2018-09-17T14:25:03.807Z,3.10
2018-09-17T14:27:32.347Z,2.47
2018-09-17T14:30:00.843Z,2.40
2018-09-17T14:32:34.675Z,2.90
2018-09-17T14:35:03.155Z,3.00
2018-09-17T14:37:32.209Z,2.57
2018-09-17T14:40:00.638Z,2.20
2018-09-17T14:42:29.054Z,3.17
2018-09-17T14:44:57.474Z,2.60
2018-09-17T14:47:26.039Z,2.43
2018-09-17T14:49:54.486Z,3.53
2018-09-17T14:52:22.999Z,3.07
2018-09-17T14:54:51.625Z,2.80
2018-09-17T14:57:20.156Z,2.60
2018-09-17T14:59:48.735Z,2.40
2018-09-17T15:02:17.326Z,2.40
2018-09-17T15:04:45.783Z,2.57
2018-09-17T15:07:14.235Z,2.60
2018-09-17T15:09:42.690Z,2.40
2018-09-17T15:12:11.195Z,2.60
2018-09-17T15:14:39.735Z,2.37
2018-09-17T15:17:08.532Z,3.13
2018-09-17T15:19:37.003Z,2.13
2018-09-17T15:22:05.536Z,2.63
2018-09-17T15:24:34.050Z,3.17
2018-09-17T15:27:02.514Z,2.77
2018-09-17T15:29:30.928Z,3.00
2018-09-17T15:31:59.439Z,3.07
2018-09-17T15:34:28.817Z,2.47
2018-09-17T15:36:57.482Z,2.50
2018-09-17T15:39:26.359Z,2.70
2018-09-17T15:41:55.022Z,2.60
2018-09-17T15:44:23.498Z,2.60
2018-09-17T15:46:52.375Z,3.13
2018-09-17T15:49:20.691Z,2.57
2018-09-17T15:51:49.223Z,3.27
2018-09-17T15:54:18.291Z,2.83
2018-09-17T15:56:47.019Z,3.20
2018-09-17T15:59:15.510Z,2.90
2018-09-17T16:01:44.139Z,3.00
2018-09-17T16:04:12.671Z,3.70
2018-09-17T16:06:41.055Z,3.33
2018-09-17T16:09:09.829Z,3.40
2018-09-17T16:11:38.399Z,2.47
2018-09-17T16:14:07.092Z,3.23
2018-09-17T16:16:35.711Z,2.50
2018-09-17T16:19:04.220Z,3.03
2018-09-17T16:21:32.974Z,2.73
2018-09-17T16:24:01.520Z,3.10
2018-09-17T16:26:29.978Z,2.70
2018-09-17T16:28:58.668Z,2.20
2018-09-17T16:31:27.310Z,2.07
2018-09-17T16:33:55.737Z,3.33
2018-09-17T16:36:24.243Z,2.90
2018-09-17T16:38:52.763Z,3.10
2018-09-17T16:41:21.291Z,2.30
2018-09-17T16:43:49.846Z,2.67
2018-09-17T16:46:18.725Z,2.77
2018-09-17T16:48:47.523Z,2.70
2018-09-17T16:51:15.964Z,2.80
2018-09-17T16:53:44.749Z,2.80
2018-09-17T16:56:13.146Z,2.87
2018-09-17T16:58:41.612Z,2.77
2018-09-17T17:01:10.275Z,2.80
2018-09-17T17:03:38.710Z,2.67
2018-09-17T17:06:07.184Z,3.07
2018-09-17T17:08:35.663Z,2.70
2018-09-17T17:11:04.217Z,3.33
2018-09-17T17:13:32.711Z,2.60
2018-09-17T17:16:01.331Z,3.80
2018-09-17T17:18:29.815Z,3.40
2018-09-17T17:20:58.348Z,3.20
2018-09-17T17:23:26.988Z,3.47
2018-09-17T17:25:55.535Z,3.27
2018-09-17T17:28:24.156Z,2.17
2018-09-17T17:30:53.249Z,3.47
2018-09-17T17:33:21.897Z,3.40
2018-09-17T17:35:50.358Z,3.50
2018-09-17T17:38:19.111Z,3.33
2018-09-17T17:40:47.895Z,2.70
2018-09-17T17:43:16.363Z,3.23
2018-09-17T17:45:45.014Z,2.80
2018-09-17T17:48:13.518Z,3.17
2018-09-17T17:50:42.027Z,3.40
2018-09-17T17:53:10.573Z,3.07
2018-09-17T17:55:39.032Z,2.47
2018-09-17T17:58:07.590Z,3.40
2018-09-17T18:00:36.094Z,3.10
2018-09-17T18:03:04.588Z,3.70
2018-09-17T18:05:33.233Z,3.20
2018-09-17T18:08:02.014Z,3.47
2018-09-17T18:10:30.602Z,4.00
2018-09-17T18:12:59.148Z,4.20
2018-09-17T18:15:27.968Z,3.30
2018-09-17T18:17:56.840Z,2.67
2018-09-17T18:20:25.417Z,2.90
2018-09-17T18:22:54.450Z,3.20
2018-09-17T18:25:23.504Z,3.20
2018-09-17T18:27:52.487Z,3.83
2018-09-17T18:30:21.208Z,3.50
2018-09-17T18:32:49.988Z,3.73
2018-09-17T18:35:18.538Z,3.37
2018-09-17T18:37:47.031Z,2.97
2018-09-17T18:40:15.548Z,3.53
2018-09-17T18:42:44.546Z,3.50
2018-09-17T18:45:13.561Z,2.70
2018-09-17T18:47:43.139Z,3.23
2018-09-17T18:50:12.072Z,3.73
2018-09-17T18:52:40.936Z,3.47
2018-09-17T18:55:10.608Z,3.30
2018-09-17T18:57:39.471Z,3.33
2018-09-17T19:00:09.532Z,3.60
2018-09-17T19:02:39.187Z,3.27
2018-09-17T19:05:08.294Z,2.80
2018-09-17T19:07:37.353Z,3.33
2018-09-17T19:10:06.638Z,2.83
2018-09-17T19:12:35.792Z,3.77
2018-09-17T19:15:09.861Z,3.20
2018-09-17T19:17:40.245Z,3.90
2018-09-17T19:20:10.523Z,3.80
2018-09-17T19:22:46.400Z,3.47
2018-09-17T19:25:17.911Z,2.90
2018-09-17T19:27:51.950Z,3.07
2018-09-17T19:30:21.171Z,2.87
2018-09-17T19:32:50.204Z,3.10
2018-09-17T19:35:19.260Z,3.40
2018-09-17T19:38:50.974Z,2.97
2018-09-17T19:41:20.184Z,3.10
2018-09-17T19:43:49.177Z,3.10
2018-09-17T19:46:19.612Z,3.77
2018-09-17T19:48:49.225Z,3.13
2018-09-17T19:51:23.684Z,3.37
2018-09-17T19:53:52.809Z,3.00
2018-09-17T19:56:21.834Z,3.87
2018-09-17T19:58:56.715Z,2.87
2018-09-17T20:01:27.251Z,3.37
2018-09-17T20:03:59.304Z,4.00
2018-09-17T20:06:28.608Z,2.93
2018-09-17T20:08:58.340Z,3.70
2018-09-17T20:11:27.595Z,3.50
2018-09-17T20:13:57.288Z,3.17
2018-09-17T20:16:26.205Z,4.63
2018-09-17T20:18:55.236Z,3.60
2018-09-17T20:21:23.995Z,3.70
2018-09-17T20:23:52.623Z,3.70
2018-09-17T20:26:21.227Z,3.43
2018-09-17T20:28:49.757Z,3.60
2018-09-17T20:31:18.333Z,3.70
2018-09-17T20:33:47.027Z,3.23
2018-09-17T20:36:15.512Z,3.70
2018-09-17T20:38:44.165Z,3.13
2018-09-17T20:41:12.599Z,3.97
2018-09-17T20:43:41.150Z,3.13
2018-09-17T20:46:09.655Z,3.30
2018-09-17T20:48:38.157Z,3.20
2018-09-17T20:51:07.578Z,3.37
2018-09-17T20:53:36.110Z,3.13
2018-09-17T20:56:04.839Z,3.63
2018-09-17T20:58:33.348Z,2.80
2018-09-17T21:01:01.831Z,3.57
2018-09-17T21:03:30.339Z,4.53
2018-09-17T21:05:58.815Z,4.00
2018-09-17T21:08:27.247Z,3.47
2018-09-17T21:10:55.692Z,4.10
2018-09-17T21:13:24.181Z,3.50
2018-09-17T21:15:52.598Z,3.87
2018-09-17T21:18:21.190Z,3.83
2018-09-17T21:20:49.635Z,3.17
2018-09-17T21:23:18.095Z,4.00
2018-09-17T21:25:47.280Z,3.07
2018-09-17T21:28:15.843Z,3.20
2018-09-17T21:30:44.394Z,4.00
2018-09-17T21:33:12.814Z,4.60
2018-09-17T21:35:41.333Z,4.23
2018-09-17T21:38:09.811Z,3.40
2018-09-17T21:40:38.450Z,4.07
2018-09-17T21:43:06.944Z,3.23
2018-09-17T21:45:35.411Z,4.03
2018-09-17T21:48:03.823Z,3.57
2018-09-17T21:50:32.298Z,3.77
2018-09-17T21:53:00.793Z,3.30
2018-09-17T21:55:29.607Z,3.67
2018-09-17T21:57:58.131Z,4.13
2018-09-17T22:00:30.602Z,3.80
2018-09-17T22:02:59.058Z,4.30
2018-09-17T22:05:27.559Z,3.83
2018-09-17T22:07:55.983Z,4.77
2018-09-17T22:10:24.397Z,3.07
2018-09-17T22:12:52.813Z,3.67
2018-09-17T22:15:21.727Z,3.80
2018-09-17T22:17:50.149Z,4.10
2018-09-17T22:20:18.636Z,3.90
2018-09-17T22:22:47.283Z,4.13
2018-09-17T22:25:15.810Z,4.37
2018-09-17T22:27:44.431Z,5.27
2018-09-17T22:30:13.195Z,4.27
2018-09-17T22:32:41.709Z,4.77
2018-09-17T22:35:10.176Z,4.77
2018-09-17T22:37:38.566Z,5.53
2018-09-17T22:40:07.323Z,4.13
2018-09-17T22:42:36.468Z,4.73
2018-09-17T22:45:05.006Z,4.10
2018-09-17T22:47:33.471Z,4.10
2018-09-17T22:50:01.887Z,3.97
2018-09-17T22:52:30.398Z,3.60
2018-09-17T22:54:58.855Z,4.33
2018-09-17T22:57:27.356Z,4.67
2018-09-17T22:59:56.018Z,3.60
2018-09-17T23:02:24.563Z,3.83
2018-09-17T23:04:53.190Z,3.67
2018-09-17T23:07:21.815Z,3.63
2018-09-17T23:09:50.214Z,3.90
2018-09-17T23:12:18.726Z,4.00
2018-09-17T23:14:47.318Z,4.03
2018-09-17T23:17:15.812Z,3.57
2018-09-17T23:19:44.435Z,4.10
2018-09-17T23:22:13.201Z,4.40
2018-09-17T23:24:41.722Z,4.70
2018-09-17T23:27:10.238Z,2.90
2018-09-17T23:29:38.742Z,4.30
2018-09-17T23:32:07.591Z,4.10
2018-09-17T23:34:36.007Z,4.83
2018-09-17T23:37:04.674Z,4.73
2018-09-17T23:39:33.379Z,4.70
2018-09-17T23:42:01.799Z,5.30
2018-09-17T23:44:30.575Z,4.93
2018-09-17T23:46:59.151Z,4.80
2018-09-17T23:49:27.559Z,4.97
2018-09-17T23:51:56.135Z,5.60
2018-09-17T23:54:24.542Z,4.60
2018-09-17T23:56:53.058Z,4.33
2018-09-17T23:59:21.582Z,5.27
